sensor_id;sensor_type;location;lat;lon;timestamp;temperature;humidity
17944;DHT22;9097;47.028;15.444;2022-12-18T00:00:20;1.70;99.90
17944;DHT22;9097;47.028;15.444;2022-12-18T00:03:23;1.50;99.90
17944;DHT22;9097;47.028;15.444;2022-12-18T00:06:27;1.60;99.90
17944;DHT22;9097;47.028;15.444;2022-12-18T00:09:32;1.50;99.90
17944;DHT22;9097;47.028;15.444;2022-12-18T00:12:35;1.30;99.90
17944;DHT22;9097;47.028;15.444;2022-12-18T00:15:38;1.10;99.90
17944;DHT22;9097;47.028;15.444;2022-12-18T00:18:42;0.90;99.90
17944;DHT22;9097;47.028;15.444;2022-12-18T00:21:46;0.80;99.90
17944;DHT22;9097;47.028;15.444;2022-12-18T00:24:49;0.80;99.90
17944;DHT22;9097;47.028;15.444;2022-12-18T00:27:52;0.80;99.90
17944;DHT22;9097;47.028;15.444;2022-12-18T00:31:00;0.70;99.90
17944;DHT22;9097;47.028;15.444;2022-12-18T00:34:02;0.60;99.90
17944;DHT22;9097;47.028;15.444;2022-12-18T00:37:06;0.70;99.90
17944;DHT22;9097;47.028;15.444;2022-12-18T00:40:12;0.60;99.90
17944;DHT22;9097;47.028;15.444;2022-12-18T00:43:15;0.50;99.90
17944;DHT22;9097;47.028;15.444;2022-12-18T00:46:16;0.40;99.90
17944;DHT22;9097;47.028;15.444;2022-12-18T00:49:19;0.40;99.90
17944;DHT22;9097;47.028;15.444;2022-12-18T00:52:22;0.20;99.90
17944;DHT22;9097;47.028;15.444;2022-12-18T00:55:27;0.40;99.90
17944;DHT22;9097;47.028;15.444;2022-12-18T00:58:30;0.30;99.90
17944;DHT22;9097;47.028;15.444;2022-12-18T01:01:34;0.20;99.90
17944;DHT22;9097;47.028;15.444;2022-12-18T01:04:38;0.30;99.90
17944;DHT22;9097;47.028;15.444;2022-12-18T01:07:41;0.30;99.90
17944;DHT22;9097;47.028;15.444;2022-12-18T01:10:46;0.30;99.90
17944;DHT22;9097;47.028;15.444;2022-12-18T01:13:51;0.30;99.90
17944;DHT22;9097;47.028;15.444;2022-12-18T01:16:54;0.60;99.90
17944;DHT22;9097;47.028;15.444;2022-12-18T01:19:56;0.50;99.90
17944;DHT22;9097;47.028;15.444;2022-12-18T01:22:59;0.50;99.90
17944;DHT22;9097;47.028;15.444;2022-12-18T01:26:06;0.60;99.90
17944;DHT22;9097;47.028;15.444;2022-12-18T01:29:09;0.50;99.90
17944;DHT22;9097;47.028;15.444;2022-12-18T01:32:12;0.50;99.90
17944;DHT22;9097;47.028;15.444;2022-12-18T01:35:14;0.50;99.90
17944;DHT22;9097;47.028;15.444;2022-12-18T01:38:19;0.30;99.90
17944;DHT22;9097;47.028;15.444;2022-12-18T01:41:26;0.30;99.90
17944;DHT22;9097;47.028;15.444;2022-12-18T01:44:59;0.40;99.90
17944;DHT22;9097;47.028;15.444;2022-12-18T01:48:05;0.30;99.90
17944;DHT22;9097;47.028;15.444;2022-12-18T01:51:12;0.10;99.90
17944;DHT22;9097;47.028;15.444;2022-12-18T01:54:17;0.00;99.90
17944;DHT22;9097;47.028;15.444;2022-12-18T01:57:23;-0.20;99.90
17944;DHT22;9097;47.028;15.444;2022-12-18T02:00:29;-0.30;99.90
17944;DHT22;9097;47.028;15.444;2022-12-18T02:03:32;-0.20;99.90
17944;DHT22;9097;47.028;15.444;2022-12-18T02:06:39;-0.20;99.90
17944;DHT22;9097;47.028;15.444;2022-12-18T02:09:47;-0.20;99.90
17944;DHT22;9097;47.028;15.444;2022-12-18T02:12:58;-0.20;99.90
17944;DHT22;9097;47.028;15.444;2022-12-18T02:16:08;-0.40;99.90
17944;DHT22;9097;47.028;15.444;2022-12-18T02:19:27;-0.50;99.90
17944;DHT22;9097;47.028;15.444;2022-12-18T02:22:44;-0.50;99.90
17944;DHT22;9097;47.028;15.444;2022-12-18T02:26:06;-0.60;99.90
17944;DHT22;9097;47.028;15.444;2022-12-18T02:29:13;-0.60;99.90
17944;DHT22;9097;47.028;15.444;2022-12-18T02:32:22;-0.50;99.90
17944;DHT22;9097;47.028;15.444;2022-12-18T02:35:29;-0.60;99.90
17944;DHT22;9097;47.028;15.444;2022-12-18T02:38:34;-0.60;99.90
17944;DHT22;9097;47.028;15.444;2022-12-18T02:41:40;-0.60;99.90
17944;DHT22;9097;47.028;15.444;2022-12-18T02:44:43;-0.80;99.90
17944;DHT22;9097;47.028;15.444;2022-12-18T02:47:48;-0.80;99.90
17944;DHT22;9097;47.028;15.444;2022-12-18T02:50:59;-0.90;99.90
17944;DHT22;9097;47.028;15.444;2022-12-18T02:54:09;-1.00;99.90
17944;DHT22;9097;47.028;15.444;2022-12-18T02:57:18;-0.90;99.90
17944;DHT22;9097;47.028;15.444;2022-12-18T03:00:27;-0.90;99.90
17944;DHT22;9097;47.028;15.444;2022-12-18T03:03:35;-1.00;99.90
17944;DHT22;9097;47.028;15.444;2022-12-18T03:07:08;-1.00;99.90
17944;DHT22;9097;47.028;15.444;2022-12-18T03:10:14;-1.00;99.90
17944;DHT22;9097;47.028;15.444;2022-12-18T03:13:33;-1.00;99.90
17944;DHT22;9097;47.028;15.444;2022-12-18T03:16:37;-1.10;99.90
17944;DHT22;9097;47.028;15.444;2022-12-18T03:19:43;-1.10;99.90
17944;DHT22;9097;47.028;15.444;2022-12-18T03:22:51;-1.10;99.90
17944;DHT22;9097;47.028;15.444;2022-12-18T03:25:58;-1.00;99.90
17944;DHT22;9097;47.028;15.444;2022-12-18T03:29:08;-1.00;99.90
17944;DHT22;9097;47.028;15.444;2022-12-18T03:32:15;-1.10;99.90
17944;DHT22;9097;47.028;15.444;2022-12-18T03:35:24;-1.20;99.90
17944;DHT22;9097;47.028;15.444;2022-12-18T03:38:30;-1.10;99.90
17944;DHT22;9097;47.028;15.444;2022-12-18T03:41:41;-1.10;99.90
17944;DHT22;9097;47.028;15.444;2022-12-18T03:44:57;-1.20;99.90
17944;DHT22;9097;47.028;15.444;2022-12-18T03:48:06;-1.20;99.90
17944;DHT22;9097;47.028;15.444;2022-12-18T03:51:18;-1.20;99.90
17944;DHT22;9097;47.028;15.444;2022-12-18T03:54:24;-1.00;99.90
17944;DHT22;9097;47.028;15.444;2022-12-18T03:57:31;-1.00;99.90
17944;DHT22;9097;47.028;15.444;2022-12-18T04:00:37;-1.10;99.90
17944;DHT22;9097;47.028;15.444;2022-12-18T04:03:42;-1.30;99.90
17944;DHT22;9097;47.028;15.444;2022-12-18T04:06:48;-1.50;99.90
17944;DHT22;9097;47.028;15.444;2022-12-18T04:09:53;-1.50;99.90
17944;DHT22;9097;47.028;15.444;2022-12-18T04:12:58;-1.50;99.90
17944;DHT22;9097;47.028;15.444;2022-12-18T04:16:02;-1.60;99.90
17944;DHT22;9097;47.028;15.444;2022-12-18T04:19:07;-1.70;99.90
17944;DHT22;9097;47.028;15.444;2022-12-18T04:22:10;-1.80;99.90
17944;DHT22;9097;47.028;15.444;2022-12-18T04:25:12;-1.80;99.90
17944;DHT22;9097;47.028;15.444;2022-12-18T04:28:17;-1.70;99.90
17944;DHT22;9097;47.028;15.444;2022-12-18T04:31:22;-1.60;99.90
17944;DHT22;9097;47.028;15.444;2022-12-18T04:34:24;-1.50;99.90
17944;DHT22;9097;47.028;15.444;2022-12-18T04:37:34;-1.60;99.90
17944;DHT22;9097;47.028;15.444;2022-12-18T04:40:39;-1.60;99.90
17944;DHT22;9097;47.028;15.444;2022-12-18T04:43:44;-1.70;99.90
17944;DHT22;9097;47.028;15.444;2022-12-18T04:46:50;-1.70;99.90
17944;DHT22;9097;47.028;15.444;2022-12-18T04:49:52;-1.60;99.90
17944;DHT22;9097;47.028;15.444;2022-12-18T04:52:55;-1.60;99.90
17944;DHT22;9097;47.028;15.444;2022-12-18T04:56:06;-1.60;99.90
17944;DHT22;9097;47.028;15.444;2022-12-18T04:59:12;-1.60;99.90
17944;DHT22;9097;47.028;15.444;2022-12-18T05:02:16;-1.70;99.90
17944;DHT22;9097;47.028;15.444;2022-12-18T05:05:20;-1.50;99.90
17944;DHT22;9097;47.028;15.444;2022-12-18T05:08:23;-1.40;99.90
17944;DHT22;9097;47.028;15.444;2022-12-18T05:11:26;-1.40;99.90
17944;DHT22;9097;47.028;15.444;2022-12-18T05:14:29;-1.40;99.90
17944;DHT22;9097;47.028;15.444;2022-12-18T05:17:33;-1.40;99.90
17944;DHT22;9097;47.028;15.444;2022-12-18T05:20:36;-1.30;99.90
17944;DHT22;9097;47.028;15.444;2022-12-18T05:23:43;-1.30;99.90
17944;DHT22;9097;47.028;15.444;2022-12-18T05:26:47;-1.40;99.90
17944;DHT22;9097;47.028;15.444;2022-12-18T05:29:50;-1.40;99.90
17944;DHT22;9097;47.028;15.444;2022-12-18T05:32:54;-1.40;99.90
17944;DHT22;9097;47.028;15.444;2022-12-18T05:36:03;-1.30;99.90
17944;DHT22;9097;47.028;15.444;2022-12-18T05:39:09;-1.30;99.90
17944;DHT22;9097;47.028;15.444;2022-12-18T05:42:12;-1.00;99.90
17944;DHT22;9097;47.028;15.444;2022-12-18T05:45:15;-0.80;99.90
17944;DHT22;9097;47.028;15.444;2022-12-18T05:48:20;-0.70;99.90
17944;DHT22;9097;47.028;15.444;2022-12-18T05:51:23;-0.60;99.90
17944;DHT22;9097;47.028;15.444;2022-12-18T05:54:27;-0.50;99.90
17944;DHT22;9097;47.028;15.444;2022-12-18T05:57:31;-0.60;99.90
17944;DHT22;9097;47.028;15.444;2022-12-18T06:00:36;-0.50;99.90
17944;DHT22;9097;47.028;15.444;2022-12-18T06:03:44;-0.60;99.90
17944;DHT22;9097;47.028;15.444;2022-12-18T06:06:46;-0.60;99.90
17944;DHT22;9097;47.028;15.444;2022-12-18T06:09:50;-0.70;99.90
17944;DHT22;9097;47.028;15.444;2022-12-18T06:12:54;-0.70;99.90
17944;DHT22;9097;47.028;15.444;2022-12-18T06:16:02;-0.70;99.90
17944;DHT22;9097;47.028;15.444;2022-12-18T06:19:06;-0.70;99.90
17944;DHT22;9097;47.028;15.444;2022-12-18T06:22:08;-0.80;99.90
17944;DHT22;9097;47.028;15.444;2022-12-18T06:25:12;-0.90;99.90
17944;DHT22;9097;47.028;15.444;2022-12-18T06:28:16;-1.30;99.90
17944;DHT22;9097;47.028;15.444;2022-12-18T06:31:19;-1.60;99.90
17944;DHT22;9097;47.028;15.444;2022-12-18T06:34:22;-1.70;99.90
17944;DHT22;9097;47.028;15.444;2022-12-18T06:37:25;-1.80;99.90
17944;DHT22;9097;47.028;15.444;2022-12-18T06:40:28;-1.60;99.90
17944;DHT22;9097;47.028;15.444;2022-12-18T06:43:30;-1.40;99.90
17944;DHT22;9097;47.028;15.444;2022-12-18T06:46:35;-1.30;99.90
17944;DHT22;9097;47.028;15.444;2022-12-18T06:49:41;-1.10;99.90
17944;DHT22;9097;47.028;15.444;2022-12-18T06:52:44;-0.90;99.90
17944;DHT22;9097;47.028;15.444;2022-12-18T06:55:48;-0.80;99.90
17944;DHT22;9097;47.028;15.444;2022-12-18T06:58:50;-0.80;99.90
17944;DHT22;9097;47.028;15.444;2022-12-18T07:01:55;-1.00;99.90
17944;DHT22;9097;47.028;15.444;2022-12-18T07:05:36;-0.90;99.90
17944;DHT22;9097;47.028;15.444;2022-12-18T07:08:44;-0.80;99.90
17944;DHT22;9097;47.028;15.444;2022-12-18T07:11:49;-0.90;99.90
17944;DHT22;9097;47.028;15.444;2022-12-18T07:14:52;-0.90;99.90
17944;DHT22;9097;47.028;15.444;2022-12-18T07:17:54;-0.70;99.90
17944;DHT22;9097;47.028;15.444;2022-12-18T07:21:03;-0.70;99.90
17944;DHT22;9097;47.028;15.444;2022-12-18T07:24:10;-0.70;99.90
17944;DHT22;9097;47.028;15.444;2022-12-18T07:27:15;-0.80;99.90
17944;DHT22;9097;47.028;15.444;2022-12-18T07:30:20;-0.80;99.90
17944;DHT22;9097;47.028;15.444;2022-12-18T07:33:23;-0.80;99.90
17944;DHT22;9097;47.028;15.444;2022-12-18T07:36:28;-0.50;99.90
17944;DHT22;9097;47.028;15.444;2022-12-18T07:39:32;-0.40;99.90
17944;DHT22;9097;47.028;15.444;2022-12-18T07:42:36;-0.40;99.90
17944;DHT22;9097;47.028;15.444;2022-12-18T07:45:39;-0.40;99.90
17944;DHT22;9097;47.028;15.444;2022-12-18T07:48:43;-0.40;99.90
17944;DHT22;9097;47.028;15.444;2022-12-18T07:51:48;-0.30;99.90
17944;DHT22;9097;47.028;15.444;2022-12-18T07:54:53;-0.20;99.90
17944;DHT22;9097;47.028;15.444;2022-12-18T07:57:56;-0.30;99.90
17944;DHT22;9097;47.028;15.444;2022-12-18T08:01:03;-0.30;99.90
17944;DHT22;9097;47.028;15.444;2022-12-18T08:04:06;-0.30;99.90
17944;DHT22;9097;47.028;15.444;2022-12-18T08:07:10;-0.40;99.90
17944;DHT22;9097;47.028;15.444;2022-12-18T08:10:23;-0.40;99.90
17944;DHT22;9097;47.028;15.444;2022-12-18T08:13:26;-0.30;99.90
17944;DHT22;9097;47.028;15.444;2022-12-18T08:16:30;-0.20;99.90
17944;DHT22;9097;47.028;15.444;2022-12-18T08:19:33;-0.10;99.90
17944;DHT22;9097;47.028;15.444;2022-12-18T08:22:41;0.00;99.90
17944;DHT22;9097;47.028;15.444;2022-12-18T08:25:46;0.30;99.90
17944;DHT22;9097;47.028;15.444;2022-12-18T08:28:51;0.50;99.90
17944;DHT22;9097;47.028;15.444;2022-12-18T08:31:54;0.60;99.90
17944;DHT22;9097;47.028;15.444;2022-12-18T08:34:59;0.80;99.90
17944;DHT22;9097;47.028;15.444;2022-12-18T08:38:04;0.90;99.90
17944;DHT22;9097;47.028;15.444;2022-12-18T08:41:08;1.00;99.90
17944;DHT22;9097;47.028;15.444;2022-12-18T08:44:12;1.10;99.90
17944;DHT22;9097;47.028;15.444;2022-12-18T08:47:32;1.30;99.90
17944;DHT22;9097;47.028;15.444;2022-12-18T08:50:36;1.40;99.90
17944;DHT22;9097;47.028;15.444;2022-12-18T08:53:39;1.70;99.90
17944;DHT22;9097;47.028;15.444;2022-12-18T08:56:43;2.10;99.90
17944;DHT22;9097;47.028;15.444;2022-12-18T08:59:47;2.60;99.90
17944;DHT22;9097;47.028;15.444;2022-12-18T09:02:51;3.20;99.90
17944;DHT22;9097;47.028;15.444;2022-12-18T09:05:55;3.30;99.90
17944;DHT22;9097;47.028;15.444;2022-12-18T09:08:59;3.50;99.90
17944;DHT22;9097;47.028;15.444;2022-12-18T09:12:02;3.40;99.90
17944;DHT22;9097;47.028;15.444;2022-12-18T09:15:06;3.20;99.90
17944;DHT22;9097;47.028;15.444;2022-12-18T09:18:08;3.00;99.90
17944;DHT22;9097;47.028;15.444;2022-12-18T09:21:13;3.60;99.90
17944;DHT22;9097;47.028;15.444;2022-12-18T09:24:18;4.10;99.90
17944;DHT22;9097;47.028;15.444;2022-12-18T09:27:21;4.40;99.90
17944;DHT22;9097;47.028;15.444;2022-12-18T09:30:25;4.50;99.90
17944;DHT22;9097;47.028;15.444;2022-12-18T09:33:32;4.80;99.90
17944;DHT22;9097;47.028;15.444;2022-12-18T09:36:37;4.50;99.90
17944;DHT22;9097;47.028;15.444;2022-12-18T09:39:41;4.60;99.90
17944;DHT22;9097;47.028;15.444;2022-12-18T10:13:59;7.30;99.90
17944;DHT22;9097;47.028;15.444;2022-12-18T10:20:20;3.00;99.90
17944;DHT22;9097;47.028;15.444;2022-12-18T10:23:31;2.00;99.90
17944;DHT22;9097;47.028;15.444;2022-12-18T10:26:38;1.80;99.90
17944;DHT22;9097;47.028;15.444;2022-12-18T10:29:42;1.60;99.90
17944;DHT22;9097;47.028;15.444;2022-12-18T10:32:45;1.50;99.90
17944;DHT22;9097;47.028;15.444;2022-12-18T10:35:58;1.50;99.90
17944;DHT22;9097;47.028;15.444;2022-12-18T10:39:19;1.30;99.90
17944;DHT22;9097;47.028;15.444;2022-12-18T10:42:26;1.30;99.90
17944;DHT22;9097;47.028;15.444;2022-12-18T10:45:30;1.30;99.90
17944;DHT22;9097;47.028;15.444;2022-12-18T10:48:35;1.30;99.90
17944;DHT22;9097;47.028;15.444;2022-12-18T10:51:38;1.10;99.90
17944;DHT22;9097;47.028;15.444;2022-12-18T10:54:48;1.20;99.90
17944;DHT22;9097;47.028;15.444;2022-12-18T10:57:53;1.20;99.90
17944;DHT22;9097;47.028;15.444;2022-12-18T11:01:05;1.20;99.90
17944;DHT22;9097;47.028;15.444;2022-12-18T11:04:13;1.20;99.90
17944;DHT22;9097;47.028;15.444;2022-12-18T11:07:17;1.20;99.90
17944;DHT22;9097;47.028;15.444;2022-12-18T11:10:22;1.10;99.90
17944;DHT22;9097;47.028;15.444;2022-12-18T11:13:29;1.00;99.90
17944;DHT22;9097;47.028;15.444;2022-12-18T11:16:42;1.00;99.90
17944;DHT22;9097;47.028;15.444;2022-12-18T11:19:52;0.90;99.90
17944;DHT22;9097;47.028;15.444;2022-12-18T11:22:57;0.90;99.90
17944;DHT22;9097;47.028;15.444;2022-12-18T11:26:01;1.00;99.90
17944;DHT22;9097;47.028;15.444;2022-12-18T11:29:10;0.90;99.90
17944;DHT22;9097;47.028;15.444;2022-12-18T11:32:35;1.00;99.90
17944;DHT22;9097;47.028;15.444;2022-12-18T11:35:42;1.00;99.90
17944;DHT22;9097;47.028;15.444;2022-12-18T11:38:49;1.10;99.90
17944;DHT22;9097;47.028;15.444;2022-12-18T11:41:59;1.00;99.90
17944;DHT22;9097;47.028;15.444;2022-12-18T11:45:27;0.90;99.90
17944;DHT22;9097;47.028;15.444;2022-12-18T11:48:34;0.90;99.90
17944;DHT22;9097;47.028;15.444;2022-12-18T11:51:48;1.00;99.90
17944;DHT22;9097;47.028;15.444;2022-12-18T11:54:56;0.90;99.90
17944;DHT22;9097;47.028;15.444;2022-12-18T11:58:10;1.00;99.90
17944;DHT22;9097;47.028;15.444;2022-12-18T12:01:27;1.00;99.90
17944;DHT22;9097;47.028;15.444;2022-12-18T12:04:50;1.00;99.90
17944;DHT22;9097;47.028;15.444;2022-12-18T12:07:58;1.10;99.90
17944;DHT22;9097;47.028;15.444;2022-12-18T12:11:09;1.10;99.90
17944;DHT22;9097;47.028;15.444;2022-12-18T12:14:26;1.00;99.90
17944;DHT22;9097;47.028;15.444;2022-12-18T12:17:37;1.00;99.90
17944;DHT22;9097;47.028;15.444;2022-12-18T12:20:49;0.90;99.90
17944;DHT22;9097;47.028;15.444;2022-12-18T12:24:00;0.90;99.90
17944;DHT22;9097;47.028;15.444;2022-12-18T12:27:13;0.90;99.90
17944;DHT22;9097;47.028;15.444;2022-12-18T12:30:20;0.90;99.90
17944;DHT22;9097;47.028;15.444;2022-12-18T12:33:36;0.80;99.90
17944;DHT22;9097;47.028;15.444;2022-12-18T12:36:49;0.80;99.90
17944;DHT22;9097;47.028;15.444;2022-12-18T12:39:55;0.70;99.90
17944;DHT22;9097;47.028;15.444;2022-12-18T12:43:01;0.90;99.90
17944;DHT22;9097;47.028;15.444;2022-12-18T12:46:18;0.80;99.90
17944;DHT22;9097;47.028;15.444;2022-12-18T12:49:32;0.70;99.90
17944;DHT22;9097;47.028;15.444;2022-12-18T12:52:39;0.70;99.90
17944;DHT22;9097;47.028;15.444;2022-12-18T12:55:43;0.60;99.90
17944;DHT22;9097;47.028;15.444;2022-12-18T12:58:52;0.70;99.90
17944;DHT22;9097;47.028;15.444;2022-12-18T13:02:06;0.60;99.90
17944;DHT22;9097;47.028;15.444;2022-12-18T13:05:21;0.60;99.90
17944;DHT22;9097;47.028;15.444;2022-12-18T13:08:28;0.60;99.90
17944;DHT22;9097;47.028;15.444;2022-12-18T13:11:42;0.80;99.90
17944;DHT22;9097;47.028;15.444;2022-12-18T13:15:19;0.80;99.90
17944;DHT22;9097;47.028;15.444;2022-12-18T13:18:23;0.70;99.90
17944;DHT22;9097;47.028;15.444;2022-12-18T13:21:32;0.50;99.90
17944;DHT22;9097;47.028;15.444;2022-12-18T13:24:35;0.50;99.90
17944;DHT22;9097;47.028;15.444;2022-12-18T13:28:04;0.60;99.90
17944;DHT22;9097;47.028;15.444;2022-12-18T13:31:09;0.70;99.90
17944;DHT22;9097;47.028;15.444;2022-12-18T13:34:16;0.80;99.90
17944;DHT22;9097;47.028;15.444;2022-12-18T13:37:43;0.80;99.90
17944;DHT22;9097;47.028;15.444;2022-12-18T13:40:56;0.60;99.90
17944;DHT22;9097;47.028;15.444;2022-12-18T13:44:11;0.60;99.90
17944;DHT22;9097;47.028;15.444;2022-12-18T13:47:27;0.50;99.90
17944;DHT22;9097;47.028;15.444;2022-12-18T13:50:30;0.50;99.90
17944;DHT22;9097;47.028;15.444;2022-12-18T13:53:43;0.70;99.90
17944;DHT22;9097;47.028;15.444;2022-12-18T13:56:49;0.80;99.90
17944;DHT22;9097;47.028;15.444;2022-12-18T14:00:14;0.80;99.90
17944;DHT22;9097;47.028;15.444;2022-12-18T14:03:23;0.80;99.90
17944;DHT22;9097;47.028;15.444;2022-12-18T14:06:29;0.70;99.90
17944;DHT22;9097;47.028;15.444;2022-12-18T14:09:40;0.70;99.90
17944;DHT22;9097;47.028;15.444;2022-12-18T14:12:48;0.70;99.90
17944;DHT22;9097;47.028;15.444;2022-12-18T14:16:06;0.50;99.90
17944;DHT22;9097;47.028;15.444;2022-12-18T14:19:20;0.50;99.90
17944;DHT22;9097;47.028;15.444;2022-12-18T14:22:31;0.50;99.90
17944;DHT22;9097;47.028;15.444;2022-12-18T14:25:35;0.60;99.90
17944;DHT22;9097;47.028;15.444;2022-12-18T14:28:44;0.70;99.90
17944;DHT22;9097;47.028;15.444;2022-12-18T14:32:10;0.80;99.90
17944;DHT22;9097;47.028;15.444;2022-12-18T14:35:14;0.80;99.90
17944;DHT22;9097;47.028;15.444;2022-12-18T14:38:21;0.80;99.90
17944;DHT22;9097;47.028;15.444;2022-12-18T14:41:35;0.80;99.90
17944;DHT22;9097;47.028;15.444;2022-12-18T14:44:43;0.90;99.90
17944;DHT22;9097;47.028;15.444;2022-12-18T14:48:05;0.90;99.90
17944;DHT22;9097;47.028;15.444;2022-12-18T14:51:17;0.90;99.90
17944;DHT22;9097;47.028;15.444;2022-12-18T14:54:22;0.90;99.90
17944;DHT22;9097;47.028;15.444;2022-12-18T14:57:31;0.80;99.90
17944;DHT22;9097;47.028;15.444;2022-12-18T15:00:41;0.90;99.90
17944;DHT22;9097;47.028;15.444;2022-12-18T15:03:45;0.90;99.90
17944;DHT22;9097;47.028;15.444;2022-12-18T15:07:03;0.90;99.90
17944;DHT22;9097;47.028;15.444;2022-12-18T15:10:11;0.90;99.90
17944;DHT22;9097;47.028;15.444;2022-12-18T15:13:22;0.90;99.90
17944;DHT22;9097;47.028;15.444;2022-12-18T15:16:28;0.90;99.90
17944;DHT22;9097;47.028;15.444;2022-12-18T15:19:38;0.80;99.90
17944;DHT22;9097;47.028;15.444;2022-12-18T15:22:47;0.90;99.90
17944;DHT22;9097;47.028;15.444;2022-12-18T15:26:02;0.90;99.90
17944;DHT22;9097;47.028;15.444;2022-12-18T15:29:21;0.80;99.90
17944;DHT22;9097;47.028;15.444;2022-12-18T15:32:33;0.80;99.90
17944;DHT22;9097;47.028;15.444;2022-12-18T15:36:07;0.70;99.90
17944;DHT22;9097;47.028;15.444;2022-12-18T15:39:19;0.70;99.90
17944;DHT22;9097;47.028;15.444;2022-12-18T15:42:29;0.70;99.90
17944;DHT22;9097;47.028;15.444;2022-12-18T15:45:51;0.80;99.90
17944;DHT22;9097;47.028;15.444;2022-12-18T15:48:56;0.90;99.90
17944;DHT22;9097;47.028;15.444;2022-12-18T15:52:03;0.90;99.90
17944;DHT22;9097;47.028;15.444;2022-12-18T15:55:14;0.80;99.90
17944;DHT22;9097;47.028;15.444;2022-12-18T15:58:36;0.80;99.90
17944;DHT22;9097;47.028;15.444;2022-12-18T16:01:51;0.80;99.90
17944;DHT22;9097;47.028;15.444;2022-12-18T16:04:59;0.70;99.90
17944;DHT22;9097;47.028;15.444;2022-12-18T16:08:03;0.80;99.90
17944;DHT22;9097;47.028;15.444;2022-12-18T16:11:20;0.60;99.90
17944;DHT22;9097;47.028;15.444;2022-12-18T16:14:38;0.50;99.90
17944;DHT22;9097;47.028;15.444;2022-12-18T16:17:45;0.50;99.90
17944;DHT22;9097;47.028;15.444;2022-12-18T16:21:07;0.30;99.90
17944;DHT22;9097;47.028;15.444;2022-12-18T16:24:16;0.30;99.90
17944;DHT22;9097;47.028;15.444;2022-12-18T16:27:26;0.30;99.90
17944;DHT22;9097;47.028;15.444;2022-12-18T16:30:32;0.40;99.90
17944;DHT22;9097;47.028;15.444;2022-12-18T16:33:38;0.40;99.90
17944;DHT22;9097;47.028;15.444;2022-12-18T16:36:43;0.40;99.90
17944;DHT22;9097;47.028;15.444;2022-12-18T16:39:47;0.40;99.90
17944;DHT22;9097;47.028;15.444;2022-12-18T16:42:50;0.40;99.90
17944;DHT22;9097;47.028;15.444;2022-12-18T16:45:53;0.40;99.90
17944;DHT22;9097;47.028;15.444;2022-12-18T16:49:03;0.50;99.90
17944;DHT22;9097;47.028;15.444;2022-12-18T16:52:07;0.60;99.90
17944;DHT22;9097;47.028;15.444;2022-12-18T16:55:11;0.70;99.90
17944;DHT22;9097;47.028;15.444;2022-12-18T16:58:14;0.70;99.90
17944;DHT22;9097;47.028;15.444;2022-12-18T17:01:17;0.80;99.90
17944;DHT22;9097;47.028;15.444;2022-12-18T17:04:22;0.80;99.90
17944;DHT22;9097;47.028;15.444;2022-12-18T17:07:27;0.80;99.90
17944;DHT22;9097;47.028;15.444;2022-12-18T17:10:29;0.80;99.90
17944;DHT22;9097;47.028;15.444;2022-12-18T17:13:35;0.60;99.90
17944;DHT22;9097;47.028;15.444;2022-12-18T17:16:41;0.50;99.90
17944;DHT22;9097;47.028;15.444;2022-12-18T17:19:48;0.40;99.90
17944;DHT22;9097;47.028;15.444;2022-12-18T17:22:53;0.40;99.90
17944;DHT22;9097;47.028;15.444;2022-12-18T17:25:58;0.40;99.90
17944;DHT22;9097;47.028;15.444;2022-12-18T17:29:07;0.40;99.90
17944;DHT22;9097;47.028;15.444;2022-12-18T17:32:18;0.50;99.90
17944;DHT22;9097;47.028;15.444;2022-12-18T17:35:24;0.60;99.90
17944;DHT22;9097;47.028;15.444;2022-12-18T17:38:31;0.60;99.90
17944;DHT22;9097;47.028;15.444;2022-12-18T17:41:41;0.70;99.90
17944;DHT22;9097;47.028;15.444;2022-12-18T17:44:52;0.80;99.90
17944;DHT22;9097;47.028;15.444;2022-12-18T17:48:04;0.90;99.90
17944;DHT22;9097;47.028;15.444;2022-12-18T17:51:29;0.90;99.90
17944;DHT22;9097;47.028;15.444;2022-12-18T17:54:34;0.90;99.90
17944;DHT22;9097;47.028;15.444;2022-12-18T17:57:54;0.90;99.90
17944;DHT22;9097;47.028;15.444;2022-12-18T18:01:22;0.90;99.90
17944;DHT22;9097;47.028;15.444;2022-12-18T18:04:33;0.90;99.90
17944;DHT22;9097;47.028;15.444;2022-12-18T18:07:46;0.90;99.90
17944;DHT22;9097;47.028;15.444;2022-12-18T18:11:09;0.80;99.90
17944;DHT22;9097;47.028;15.444;2022-12-18T18:14:36;0.80;99.90
17944;DHT22;9097;47.028;15.444;2022-12-18T18:17:42;0.80;99.90
17944;DHT22;9097;47.028;15.444;2022-12-18T18:20:47;0.80;99.90
17944;DHT22;9097;47.028;15.444;2022-12-18T18:23:51;0.80;99.90
17944;DHT22;9097;47.028;15.444;2022-12-18T18:26:56;0.70;99.90
17944;DHT22;9097;47.028;15.444;2022-12-18T18:30:08;0.70;99.90
17944;DHT22;9097;47.028;15.444;2022-12-18T18:33:15;0.80;99.90
17944;DHT22;9097;47.028;15.444;2022-12-18T18:36:27;0.80;99.90
17944;DHT22;9097;47.028;15.444;2022-12-18T18:39:42;0.70;99.90
17944;DHT22;9097;47.028;15.444;2022-12-18T18:43:15;0.80;99.90
17944;DHT22;9097;47.028;15.444;2022-12-18T18:46:27;0.80;99.90
17944;DHT22;9097;47.028;15.444;2022-12-18T18:49:38;0.80;99.90
17944;DHT22;9097;47.028;15.444;2022-12-18T18:52:50;0.90;99.90
17944;DHT22;9097;47.028;15.444;2022-12-18T18:55:59;0.90;99.90
17944;DHT22;9097;47.028;15.444;2022-12-18T18:59:04;0.90;99.90
17944;DHT22;9097;47.028;15.444;2022-12-18T19:02:14;1.00;99.90
17944;DHT22;9097;47.028;15.444;2022-12-18T19:05:31;0.90;99.90
17944;DHT22;9097;47.028;15.444;2022-12-18T19:09:02;0.90;99.90
17944;DHT22;9097;47.028;15.444;2022-12-18T19:12:20;0.90;99.90
17944;DHT22;9097;47.028;15.444;2022-12-18T19:19:20;1.10;99.90
17944;DHT22;9097;47.028;15.444;2022-12-18T19:22:31;1.00;99.90
17944;DHT22;9097;47.028;15.444;2022-12-18T19:25:41;1.00;99.90
17944;DHT22;9097;47.028;15.444;2022-12-18T19:28:49;1.00;99.90
17944;DHT22;9097;47.028;15.444;2022-12-18T19:31:56;1.00;99.90
17944;DHT22;9097;47.028;15.444;2022-12-18T19:35:09;1.00;99.90
17944;DHT22;9097;47.028;15.444;2022-12-18T19:38:13;1.00;99.90
17944;DHT22;9097;47.028;15.444;2022-12-18T19:41:17;1.00;99.90
17944;DHT22;9097;47.028;15.444;2022-12-18T19:44:22;1.00;99.90
17944;DHT22;9097;47.028;15.444;2022-12-18T19:47:26;1.10;99.90
17944;DHT22;9097;47.028;15.444;2022-12-18T19:50:28;1.10;99.90
17944;DHT22;9097;47.028;15.444;2022-12-18T19:53:31;1.10;99.90
17944;DHT22;9097;47.028;15.444;2022-12-18T19:56:34;1.10;99.90
17944;DHT22;9097;47.028;15.444;2022-12-18T19:59:38;1.00;99.90
17944;DHT22;9097;47.028;15.444;2022-12-18T20:02:42;1.10;99.90
17944;DHT22;9097;47.028;15.444;2022-12-18T20:05:46;1.10;99.90
17944;DHT22;9097;47.028;15.444;2022-12-18T20:08:53;1.10;99.90
17944;DHT22;9097;47.028;15.444;2022-12-18T20:11:59;1.20;99.90
17944;DHT22;9097;47.028;15.444;2022-12-18T20:15:03;1.10;99.90
17944;DHT22;9097;47.028;15.444;2022-12-18T20:18:08;1.10;99.90
17944;DHT22;9097;47.028;15.444;2022-12-18T20:21:11;1.00;99.90
17944;DHT22;9097;47.028;15.444;2022-12-18T20:24:32;1.10;99.90
17944;DHT22;9097;47.028;15.444;2022-12-18T20:27:39;1.20;99.90
17944;DHT22;9097;47.028;15.444;2022-12-18T20:30:47;1.30;99.90
17944;DHT22;9097;47.028;15.444;2022-12-18T20:33:50;1.40;99.90
17944;DHT22;9097;47.028;15.444;2022-12-18T20:36:54;1.40;99.90